sensor_id;sensor_type;location;lat;lon;timestamp;P1;durP1;ratioP1;P2;durP2;ratioP2
71116;SDS011;58775;46.992;9.518;2023-10-31T00:01:30;2.35;;;0.55;;
71116;SDS011;58775;46.992;9.518;2023-10-31T00:03:31;1.85;;;0.82;;
71116;SDS011;58775;46.992;9.518;2023-10-31T00:05:32;1.45;;;0.60;;
71116;SDS011;58775;46.992;9.518;2023-10-31T00:07:33;1.58;;;0.50;;
71116;SDS011;58775;46.992;9.518;2023-10-31T00:09:33;1.97;;;0.80;;
71116;SDS011;58775;46.992;9.518;2023-10-31T00:11:34;1.60;;;0.70;;
71116;SDS011;58775;46.992;9.518;2023-10-31T00:13:35;1.83;;;0.70;;
71116;SDS011;58775;46.992;9.518;2023-10-31T00:15:36;2.83;;;0.80;;
71116;SDS011;58775;46.992;9.518;2023-10-31T00:17:36;2.10;;;0.70;;
71116;SDS011;58775;46.992;9.518;2023-10-31T00:19:37;1.33;;;0.53;;
71116;SDS011;58775;46.992;9.518;2023-10-31T00:21:38;3.20;;;0.43;;
71116;SDS011;58775;46.992;9.518;2023-10-31T00:23:48;1.43;;;0.50;;
71116;SDS011;58775;46.992;9.518;2023-10-31T00:25:49;0.68;;;0.30;;
71116;SDS011;58775;46.992;9.518;2023-10-31T00:27:49;0.93;;;0.38;;
71116;SDS011;58775;46.992;9.518;2023-10-31T00:29:50;1.00;;;0.30;;
71116;SDS011;58775;46.992;9.518;2023-10-31T00:31:51;0.60;;;0.20;;
71116;SDS011;58775;46.992;9.518;2023-10-31T00:33:52;1.08;;;0.40;;
71116;SDS011;58775;46.992;9.518;2023-10-31T00:35:52;1.45;;;0.25;;
71116;SDS011;58775;46.992;9.518;2023-10-31T00:37:53;1.90;;;0.20;;
71116;SDS011;58775;46.992;9.518;2023-10-31T00:39:54;0.70;;;0.20;;
71116;SDS011;58775;46.992;9.518;2023-10-31T00:41:55;1.90;;;0.30;;
71116;SDS011;58775;46.992;9.518;2023-10-31T00:43:55;0.30;;;0.20;;
71116;SDS011;58775;46.992;9.518;2023-10-31T00:45:56;1.27;;;0.30;;
71116;SDS011;58775;46.992;9.518;2023-10-31T00:47:58;0.23;;;0.13;;
71116;SDS011;58775;46.992;9.518;2023-10-31T00:49:59;1.10;;;0.20;;
71116;SDS011;58775;46.992;9.518;2023-10-31T00:51:59;0.25;;;0.20;;
71116;SDS011;58775;46.992;9.518;2023-10-31T00:54:00;0.30;;;0.17;;
71116;SDS011;58775;46.992;9.518;2023-10-31T00:56:02;0.57;;;0.20;;
71116;SDS011;58775;46.992;9.518;2023-10-31T00:58:04;0.20;;;0.20;;
71116;SDS011;58775;46.992;9.518;2023-10-31T01:00:05;0.30;;;0.20;;
71116;SDS011;58775;46.992;9.518;2023-10-31T01:02:07;1.10;;;0.10;;
71116;SDS011;58775;46.992;9.518;2023-10-31T01:04:07;0.65;;;0.10;;
71116;SDS011;58775;46.992;9.518;2023-10-31T01:06:08;1.27;;;0.20;;
71116;SDS011;58775;46.992;9.518;2023-10-31T01:08:09;0.30;;;0.20;;
71116;SDS011;58775;46.992;9.518;2023-10-31T01:10:10;3.65;;;0.95;;
71116;SDS011;58775;46.992;9.518;2023-10-31T01:12:11;1.57;;;0.23;;
71116;SDS011;58775;46.992;9.518;2023-10-31T01:14:11;3.28;;;0.40;;
71116;SDS011;58775;46.992;9.518;2023-10-31T01:16:12;1.23;;;0.20;;
71116;SDS011;58775;46.992;9.518;2023-10-31T01:18:13;2.58;;;0.43;;
71116;SDS011;58775;46.992;9.518;2023-10-31T01:20:15;1.92;;;0.30;;
71116;SDS011;58775;46.992;9.518;2023-10-31T01:22:16;1.53;;;0.30;;
71116;SDS011;58775;46.992;9.518;2023-10-31T01:24:16;1.67;;;0.28;;
71116;SDS011;58775;46.992;9.518;2023-10-31T01:26:17;1.77;;;0.40;;
71116;SDS011;58775;46.992;9.518;2023-10-31T01:28:18;1.15;;;0.30;;
71116;SDS011;58775;46.992;9.518;2023-10-31T01:30:19;1.50;;;0.30;;
71116;SDS011;58775;46.992;9.518;2023-10-31T01:32:19;2.45;;;0.40;;
71116;SDS011;58775;46.992;9.518;2023-10-31T01:34:20;2.92;;;0.30;;
71116;SDS011;58775;46.992;9.518;2023-10-31T01:36:25;2.13;;;0.40;;
71116;SDS011;58775;46.992;9.518;2023-10-31T01:38:27;1.80;;;0.30;;
71116;SDS011;58775;46.992;9.518;2023-10-31T01:40:27;1.80;;;0.30;;
71116;SDS011;58775;46.992;9.518;2023-10-31T01:42:28;1.10;;;0.20;;
71116;SDS011;58775;46.992;9.518;2023-10-31T01:44:29;0.40;;;0.28;;
71116;SDS011;58775;46.992;9.518;2023-10-31T01:46:31;1.25;;;0.40;;
71116;SDS011;58775;46.992;9.518;2023-10-31T01:48:32;0.87;;;0.20;;
71116;SDS011;58775;46.992;9.518;2023-10-31T01:50:34;0.82;;;0.25;;
71116;SDS011;58775;46.992;9.518;2023-10-31T01:52:35;0.82;;;0.20;;
71116;SDS011;58775;46.992;9.518;2023-10-31T01:54:37;1.25;;;0.63;;
71116;SDS011;58775;46.992;9.518;2023-10-31T01:56:38;1.43;;;0.33;;
71116;SDS011;58775;46.992;9.518;2023-10-31T01:58:39;0.77;;;0.20;;
71116;SDS011;58775;46.992;9.518;2023-10-31T02:00:42;2.17;;;0.20;;
71116;SDS011;58775;46.992;9.518;2023-10-31T02:02:43;1.27;;;0.20;;
71116;SDS011;58775;46.992;9.518;2023-10-31T02:04:45;1.60;;;0.20;;
71116;SDS011;58775;46.992;9.518;2023-10-31T02:06:46;2.47;;;0.30;;
71116;SDS011;58775;46.992;9.518;2023-10-31T02:08:47;0.73;;;0.20;;
71116;SDS011;58775;46.992;9.518;2023-10-31T02:10:48;0.20;;;0.20;;
71116;SDS011;58775;46.992;9.518;2023-10-31T02:12:48;1.25;;;0.10;;
71116;SDS011;58775;46.992;9.518;2023-10-31T02:14:49;0.17;;;0.17;;
71116;SDS011;58775;46.992;9.518;2023-10-31T02:16:50;0.10;;;0.10;;
71116;SDS011;58775;46.992;9.518;2023-10-31T02:18:51;0.20;;;0.20;;
71116;SDS011;58775;46.992;9.518;2023-10-31T02:20:52;0.25;;;0.10;;
71116;SDS011;58775;46.992;9.518;2023-10-31T02:22:53;0.10;;;0.10;;
71116;SDS011;58775;46.992;9.518;2023-10-31T02:24:54;0.52;;;0.20;;
71116;SDS011;58775;46.992;9.518;2023-10-31T02:26:54;0.40;;;0.20;;
71116;SDS011;58775;46.992;9.518;2023-10-31T02:28:57;1.45;;;0.20;;
71116;SDS011;58775;46.992;9.518;2023-10-31T02:30:58;0.22;;;0.10;;
71116;SDS011;58775;46.992;9.518;2023-10-31T02:33:00;2.77;;;0.20;;
71116;SDS011;58775;46.992;9.518;2023-10-31T02:35:01;0.47;;;0.20;;
71116;SDS011;58775;46.992;9.518;2023-10-31T02:37:02;0.40;;;0.10;;
71116;SDS011;58775;46.992;9.518;2023-10-31T02:39:03;1.53;;;0.33;;
71116;SDS011;58775;46.992;9.518;2023-10-31T02:41:04;0.85;;;0.20;;
71116;SDS011;58775;46.992;9.518;2023-10-31T02:43:05;3.20;;;0.57;;
71116;SDS011;58775;46.992;9.518;2023-10-31T02:45:07;0.20;;;0.20;;
71116;SDS011;58775;46.992;9.518;2023-10-31T02:47:08;0.32;;;0.20;;
71116;SDS011;58775;46.992;9.518;2023-10-31T02:49:10;0.82;;;0.20;;
71116;SDS011;58775;46.992;9.518;2023-10-31T02:51:11;1.77;;;0.32;;
71116;SDS011;58775;46.992;9.518;2023-10-31T02:53:11;0.20;;;0.20;;
71116;SDS011;58775;46.992;9.518;2023-10-31T02:55:12;1.45;;;0.22;;
71116;SDS011;58775;46.992;9.518;2023-10-31T02:57:13;0.45;;;0.15;;
71116;SDS011;58775;46.992;9.518;2023-10-31T02:59:15;0.20;;;0.20;;
71116;SDS011;58775;46.992;9.518;2023-10-31T03:01:15;0.43;;;0.10;;
71116;SDS011;58775;46.992;9.518;2023-10-31T03:03:18;2.40;;;0.30;;
71116;SDS011;58775;46.992;9.518;2023-10-31T03:05:19;0.47;;;0.20;;
71116;SDS011;58775;46.992;9.518;2023-10-31T03:07:20;0.10;;;0.10;;
71116;SDS011;58775;46.992;9.518;2023-10-31T03:09:23;1.08;;;0.20;;
71116;SDS011;58775;46.992;9.518;2023-10-31T03:11:24;1.97;;;0.20;;
71116;SDS011;58775;46.992;9.518;2023-10-31T03:13:25;0.65;;;0.25;;
71116;SDS011;58775;46.992;9.518;2023-10-31T03:15:26;0.60;;;0.20;;
71116;SDS011;58775;46.992;9.518;2023-10-31T03:17:27;2.07;;;0.30;;
71116;SDS011;58775;46.992;9.518;2023-10-31T03:19:28;0.35;;;0.17;;
71116;SDS011;58775;46.992;9.518;2023-10-31T03:21:29;0.38;;;0.20;;
71116;SDS011;58775;46.992;9.518;2023-10-31T03:23:31;0.50;;;0.20;;
71116;SDS011;58775;46.992;9.518;2023-10-31T03:25:34;0.10;;;0.10;;
71116;SDS011;58775;46.992;9.518;2023-10-31T03:27:35;1.23;;;0.17;;
71116;SDS011;58775;46.992;9.518;2023-10-31T03:29:36;0.40;;;0.20;;
71116;SDS011;58775;46.992;9.518;2023-10-31T03:31:36;0.40;;;0.20;;
71116;SDS011;58775;46.992;9.518;2023-10-31T03:33:37;2.13;;;0.20;;
71116;SDS011;58775;46.992;9.518;2023-10-31T03:35:38;0.57;;;0.20;;
71116;SDS011;58775;46.992;9.518;2023-10-31T03:37:39;0.40;;;0.20;;
71116;SDS011;58775;46.992;9.518;2023-10-31T03:39:41;2.15;;;0.20;;
71116;SDS011;58775;46.992;9.518;2023-10-31T03:41:42;0.75;;;0.22;;
71116;SDS011;58775;46.992;9.518;2023-10-31T03:43:43;0.80;;;0.20;;
71116;SDS011;58775;46.992;9.518;2023-10-31T03:45:45;0.70;;;0.10;;
71116;SDS011;58775;46.992;9.518;2023-10-31T03:47:49;0.95;;;0.28;;
71116;SDS011;58775;46.992;9.518;2023-10-31T03:49:50;0.57;;;0.20;;
71116;SDS011;58775;46.992;9.518;2023-10-31T03:51:51;0.70;;;0.20;;
71116;SDS011;58775;46.992;9.518;2023-10-31T03:53:52;0.80;;;0.20;;
71116;SDS011;58775;46.992;9.518;2023-10-31T03:55:52;1.80;;;0.30;;
71116;SDS011;58775;46.992;9.518;2023-10-31T03:57:53;1.35;;;0.30;;
71116;SDS011;58775;46.992;9.518;2023-10-31T03:59:54;0.60;;;0.20;;
71116;SDS011;58775;46.992;9.518;2023-10-31T04:01:56;0.82;;;0.20;;
71116;SDS011;58775;46.992;9.518;2023-10-31T04:03:57;0.23;;;0.10;;
71116;SDS011;58775;46.992;9.518;2023-10-31T04:05:58;0.25;;;0.15;;
71116;SDS011;58775;46.992;9.518;2023-10-31T04:07:58;0.95;;;0.20;;
71116;SDS011;58775;46.992;9.518;2023-10-31T04:09:59;2.38;;;0.10;;
71116;SDS011;58775;46.992;9.518;2023-10-31T04:12:00;0.30;;;0.20;;
71116;SDS011;58775;46.992;9.518;2023-10-31T04:14:01;0.10;;;0.10;;
71116;SDS011;58775;46.992;9.518;2023-10-31T04:16:02;0.43;;;0.20;;
71116;SDS011;58775;46.992;9.518;2023-10-31T04:18:03;0.30;;;0.10;;
71116;SDS011;58775;46.992;9.518;2023-10-31T04:20:04;0.40;;;0.20;;
71116;SDS011;58775;46.992;9.518;2023-10-31T04:22:05;0.70;;;0.30;;
71116;SDS011;58775;46.992;9.518;2023-10-31T04:24:06;1.60;;;0.40;;
71116;SDS011;58775;46.992;9.518;2023-10-31T04:26:07;0.30;;;0.20;;
71116;SDS011;58775;46.992;9.518;2023-10-31T04:28:08;0.68;;;0.20;;
71116;SDS011;58775;46.992;9.518;2023-10-31T04:30:09;1.05;;;0.20;;
71116;SDS011;58775;46.992;9.518;2023-10-31T04:32:10;0.60;;;0.30;;
71116;SDS011;58775;46.992;9.518;2023-10-31T04:34:11;3.08;;;0.30;;
71116;SDS011;58775;46.992;9.518;2023-10-31T04:36:11;0.82;;;0.40;;
71116;SDS011;58775;46.992;9.518;2023-10-31T04:38:12;1.70;;;0.20;;
71116;SDS011;58775;46.992;9.518;2023-10-31T04:40:13;1.75;;;0.30;;
71116;SDS011;58775;46.992;9.518;2023-10-31T04:42:14;0.30;;;0.20;;
71116;SDS011;58775;46.992;9.518;2023-10-31T04:44:15;0.20;;;0.20;;
71116;SDS011;58775;46.992;9.518;2023-10-31T04:46:17;1.38;;;0.30;;
71116;SDS011;58775;46.992;9.518;2023-10-31T04:48:17;1.13;;;0.30;;
71116;SDS011;58775;46.992;9.518;2023-10-31T04:50:18;0.93;;;0.30;;
71116;SDS011;58775;46.992;9.518;2023-10-31T04:52:19;0.80;;;0.20;;
71116;SDS011;58775;46.992;9.518;2023-10-31T04:54:20;0.90;;;0.20;;
71116;SDS011;58775;46.992;9.518;2023-10-31T04:56:21;0.25;;;0.20;;
71116;SDS011;58775;46.992;9.518;2023-10-31T04:58:21;0.30;;;0.10;;
71116;SDS011;58775;46.992;9.518;2023-10-31T05:00:23;0.55;;;0.20;;
71116;SDS011;58775;46.992;9.518;2023-10-31T05:02:24;0.77;;;0.20;;
71116;SDS011;58775;46.992;9.518;2023-10-31T05:04:25;0.87;;;0.20;;
71116;SDS011;58775;46.992;9.518;2023-10-31T05:06:26;0.77;;;0.28;;
71116;SDS011;58775;46.992;9.518;2023-10-31T05:08:27;0.52;;;0.28;;
71116;SDS011;58775;46.992;9.518;2023-10-31T05:10:28;0.20;;;0.20;;
71116;SDS011;58775;46.992;9.518;2023-10-31T05:12:29;0.30;;;0.20;;
71116;SDS011;58775;46.992;9.518;2023-10-31T05:14:29;1.57;;;0.40;;
71116;SDS011;58775;46.992;9.518;2023-10-31T05:16:30;0.47;;;0.30;;
71116;SDS011;58775;46.992;9.518;2023-10-31T05:18:31;0.20;;;0.20;;
71116;SDS011;58775;46.992;9.518;2023-10-31T05:20:32;0.95;;;0.20;;
71116;SDS011;58775;46.992;9.518;2023-10-31T05:22:32;0.93;;;0.20;;
71116;SDS011;58775;46.992;9.518;2023-10-31T05:24:33;0.50;;;0.20;;
71116;SDS011;58775;46.992;9.518;2023-10-31T05:26:34;0.98;;;0.28;;
71116;SDS011;58775;46.992;9.518;2023-10-31T05:28:35;0.67;;;0.30;;
71116;SDS011;58775;46.992;9.518;2023-10-31T05:30:36;1.75;;;0.20;;
71116;SDS011;58775;46.992;9.518;2023-10-31T05:32:38;1.38;;;0.20;;
71116;SDS011;58775;46.992;9.518;2023-10-31T05:34:38;0.75;;;0.30;;
71116;SDS011;58775;46.992;9.518;2023-10-31T05:36:39;0.50;;;0.20;;
71116;SDS011;58775;46.992;9.518;2023-10-31T05:38:40;1.50;;;0.30;;
71116;SDS011;58775;46.992;9.518;2023-10-31T05:40:41;0.30;;;0.20;;
71116;SDS011;58775;46.992;9.518;2023-10-31T05:42:42;0.55;;;0.22;;
71116;SDS011;58775;46.992;9.518;2023-10-31T05:44:43;7.40;;;1.53;;
71116;SDS011;58775;46.992;9.518;2023-10-31T05:46:44;1.13;;;0.45;;
71116;SDS011;58775;46.992;9.518;2023-10-31T05:48:45;1.65;;;0.40;;
71116;SDS011;58775;46.992;9.518;2023-10-31T05:50:47;1.25;;;0.40;;
71116;SDS011;58775;46.992;9.518;2023-10-31T05:52:47;1.90;;;0.40;;
71116;SDS011;58775;46.992;9.518;2023-10-31T05:54:48;0.75;;;0.30;;
71116;SDS011;58775;46.992;9.518;2023-10-31T05:56:49;1.70;;;0.50;;
71116;SDS011;58775;46.992;9.518;2023-10-31T05:58:50;1.92;;;0.50;;
71116;SDS011;58775;46.992;9.518;2023-10-31T06:00:50;0.80;;;0.35;;
71116;SDS011;58775;46.992;9.518;2023-10-31T06:02:51;1.17;;;0.50;;
71116;SDS011;58775;46.992;9.518;2023-10-31T06:04:52;2.72;;;1.00;;
71116;SDS011;58775;46.992;9.518;2023-10-31T06:06:53;2.38;;;0.88;;
71116;SDS011;58775;46.992;9.518;2023-10-31T06:08:53;2.13;;;0.70;;
71116;SDS011;58775;46.992;9.518;2023-10-31T06:10:58;1.67;;;0.60;;
71116;SDS011;58775;46.992;9.518;2023-10-31T06:13:00;2.00;;;0.60;;
71116;SDS011;58775;46.992;9.518;2023-10-31T06:15:01;1.90;;;0.75;;
71116;SDS011;58775;46.992;9.518;2023-10-31T06:17:02;3.23;;;1.00;;
71116;SDS011;58775;46.992;9.518;2023-10-31T06:19:03;4.00;;;0.73;;
71116;SDS011;58775;46.992;9.518;2023-10-31T06:21:04;2.55;;;0.70;;
71116;SDS011;58775;46.992;9.518;2023-10-31T06:23:05;2.83;;;0.80;;
71116;SDS011;58775;46.992;9.518;2023-10-31T06:25:06;2.17;;;0.60;;
71116;SDS011;58775;46.992;9.518;2023-10-31T06:27:07;1.73;;;0.40;;
71116;SDS011;58775;46.992;9.518;2023-10-31T06:29:07;1.33;;;0.50;;
71116;SDS011;58775;46.992;9.518;2023-10-31T06:31:08;0.80;;;0.30;;
71116;SDS011;58775;46.992;9.518;2023-10-31T06:33:09;1.13;;;0.40;;
71116;SDS011;58775;46.992;9.518;2023-10-31T06:35:10;0.75;;;0.40;;
71116;SDS011;58775;46.992;9.518;2023-10-31T06:37:11;2.53;;;0.47;;
71116;SDS011;58775;46.992;9.518;2023-10-31T06:39:12;0.95;;;0.20;;
71116;SDS011;58775;46.992;9.518;2023-10-31T06:41:13;0.70;;;0.20;;
71116;SDS011;58775;46.992;9.518;2023-10-31T06:43:14;0.77;;;0.20;;
71116;SDS011;58775;46.992;9.518;2023-10-31T06:45:15;1.23;;;0.32;;
71116;SDS011;58775;46.992;9.518;2023-10-31T06:47:15;0.50;;;0.20;;
71116;SDS011;58775;46.992;9.518;2023-10-31T06:49:16;1.02;;;0.30;;
71116;SDS011;58775;46.992;9.518;2023-10-31T06:51:17;0.30;;;0.20;;
71116;SDS011;58775;46.992;9.518;2023-10-31T06:53:18;0.23;;;0.20;;
71116;SDS011;58775;46.992;9.518;2023-10-31T06:55:19;0.52;;;0.30;;
71116;SDS011;58775;46.992;9.518;2023-10-31T06:57:20;0.40;;;0.30;;
71116;SDS011;58775;46.992;9.518;2023-10-31T06:59:20;0.67;;;0.20;;
71116;SDS011;58775;46.992;9.518;2023-10-31T07:01:21;0.70;;;0.20;;
71116;SDS011;58775;46.992;9.518;2023-10-31T07:03:22;0.50;;;0.20;;
71116;SDS011;58775;46.992;9.518;2023-10-31T07:05:23;0.68;;;0.20;;
71116;SDS011;58775;46.992;9.518;2023-10-31T07:07:23;1.17;;;0.30;;
71116;SDS011;58775;46.992;9.518;2023-10-31T07:09:24;1.52;;;0.25;;
71116;SDS011;58775;46.992;9.518;2023-10-31T07:11:26;2.20;;;0.40;;
71116;SDS011;58775;46.992;9.518;2023-10-31T07:13:26;0.73;;;0.20;;
71116;SDS011;58775;46.992;9.518;2023-10-31T07:15:27;1.23;;;0.20;;
71116;SDS011;58775;46.992;9.518;2023-10-31T07:17:28;1.73;;;0.40;;
71116;SDS011;58775;46.992;9.518;2023-10-31T07:19:30;0.75;;;0.25;;
71116;SDS011;58775;46.992;9.518;2023-10-31T07:21:31;1.98;;;0.20;;
71116;SDS011;58775;46.992;9.518;2023-10-31T07:23:32;0.17;;;0.10;;
71116;SDS011;58775;46.992;9.518;2023-10-31T07:25:33;1.15;;;0.20;;
71116;SDS011;58775;46.992;9.518;2023-10-31T07:27:33;0.43;;;0.30;;
71116;SDS011;58775;46.992;9.518;2023-10-31T07:29:34;0.30;;;0.20;;
71116;SDS011;58775;46.992;9.518;2023-10-31T07:31:35;0.60;;;0.20;;
71116;SDS011;58775;46.992;9.518;2023-10-31T07:33:38;0.88;;;0.30;;
71116;SDS011;58775;46.992;9.518;2023-10-31T07:35:39;1.87;;;0.30;;
71116;SDS011;58775;46.992;9.518;2023-10-31T07:37:40;2.25;;;0.30;;
71116;SDS011;58775;46.992;9.518;2023-10-31T07:39:41;2.10;;;0.40;;
71116;SDS011;58775;46.992;9.518;2023-10-31T07:41:42;1.02;;;0.30;;
71116;SDS011;58775;46.992;9.518;2023-10-31T07:43:44;1.40;;;0.63;;
71116;SDS011;58775;46.992;9.518;2023-10-31T07:45:45;1.60;;;0.30;;
71116;SDS011;58775;46.992;9.518;2023-10-31T07:47:45;1.17;;;0.38;;
71116;SDS011;58775;46.992;9.518;2023-10-31T07:49:46;0.97;;;0.23;;
71116;SDS011;58775;46.992;9.518;2023-10-31T07:51:48;2.05;;;0.45;;
71116;SDS011;58775;46.992;9.518;2023-10-31T07:53:49;0.68;;;0.22;;
71116;SDS011;58775;46.992;9.518;2023-10-31T07:55:50;0.60;;;0.40;;
71116;SDS011;58775;46.992;9.518;2023-10-31T07:57:50;1.73;;;0.28;;
71116;SDS011;58775;46.992;9.518;2023-10-31T07:59:51;1.05;;;0.20;;
71116;SDS011;58775;46.992;9.518;2023-10-31T08:01:52;1.60;;;0.20;;
71116;SDS011;58775;46.992;9.518;2023-10-31T08:03:53;0.50;;;0.28;;
71116;SDS011;58775;46.992;9.518;2023-10-31T08:05:54;3.03;;;0.52;;
71116;SDS011;58775;46.992;9.518;2023-10-31T08:07:54;2.30;;;0.50;;
71116;SDS011;58775;46.992;9.518;2023-10-31T08:09:56;3.30;;;0.30;;
71116;SDS011;58775;46.992;9.518;2023-10-31T08:11:56;1.40;;;0.30;;
71116;SDS011;58775;46.992;9.518;2023-10-31T08:13:57;1.33;;;0.30;;
71116;SDS011;58775;46.992;9.518;2023-10-31T08:15:58;1.15;;;0.30;;
71116;SDS011;58775;46.992;9.518;2023-10-31T08:17:59;2.03;;;0.30;;
71116;SDS011;58775;46.992;9.518;2023-10-31T08:20:00;1.30;;;0.35;;
71116;SDS011;58775;46.992;9.518;2023-10-31T08:22:03;0.30;;;0.20;;
71116;SDS011;58775;46.992;9.518;2023-10-31T08:24:04;0.90;;;0.20;;
71116;SDS011;58775;46.992;9.518;2023-10-31T08:26:08;0.85;;;0.30;;
71116;SDS011;58775;46.992;9.518;2023-10-31T08:28:09;2.03;;;0.30;;
71116;SDS011;58775;46.992;9.518;2023-10-31T08:30:10;1.23;;;0.40;;
71116;SDS011;58775;46.992;9.518;2023-10-31T08:32:11;2.35;;;0.35;;
71116;SDS011;58775;46.992;9.518;2023-10-31T08:34:12;0.50;;;0.30;;
71116;SDS011;58775;46.992;9.518;2023-10-31T08:36:13;0.70;;;0.20;;
71116;SDS011;58775;46.992;9.518;2023-10-31T08:38:13;0.95;;;0.35;;
71116;SDS011;58775;46.992;9.518;2023-10-31T08:40:14;0.90;;;0.25;;
71116;SDS011;58775;46.992;9.518;2023-10-31T08:42:17;1.67;;;0.40;;
71116;SDS011;58775;46.992;9.518;2023-10-31T08:44:18;2.40;;;0.80;;
71116;SDS011;58775;46.992;9.518;2023-10-31T08:46:19;3.35;;;0.73;;
71116;SDS011;58775;46.992;9.518;2023-10-31T08:48:19;2.57;;;0.63;;
71116;SDS011;58775;46.992;9.518;2023-10-31T08:50:20;3.80;;;1.20;;
71116;SDS011;58775;46.992;9.518;2023-10-31T08:52:21;3.23;;;1.00;;
71116;SDS011;58775;46.992;9.518;2023-10-31T08:54:22;4.32;;;0.98;;
71116;SDS011;58775;46.992;9.518;2023-10-31T08:56:23;4.82;;;1.00;;
71116;SDS011;58775;46.992;9.518;2023-10-31T08:58:24;4.73;;;1.20;;
71116;SDS011;58775;46.992;9.518;2023-10-31T09:00:25;3.05;;;0.80;;
71116;SDS011;58775;46.992;9.518;2023-10-31T09:02:28;3.58;;;1.00;;
71116;SDS011;58775;46.992;9.518;2023-10-31T09:04:29;5.40;;;1.07;;
71116;SDS011;58775;46.992;9.518;2023-10-31T09:06:30;3.05;;;1.20;;
71116;SDS011;58775;46.992;9.518;2023-10-31T09:08:31;3.58;;;0.95;;
71116;SDS011;58775;46.992;9.518;2023-10-31T09:10:33;4.07;;;0.90;;
71116;SDS011;58775;46.992;9.518;2023-10-31T09:12:36;3.28;;;1.10;;
71116;SDS011;58775;46.992;9.518;2023-10-31T09:14:38;3.08;;;0.85;;
71116;SDS011;58775;46.992;9.518;2023-10-31T09:16:39;4.28;;;1.00;;
71116;SDS011;58775;46.992;9.518;2023-10-31T09:18:40;3.90;;;0.90;;
71116;SDS011;58775;46.992;9.518;2023-10-31T09:20:41;2.90;;;0.80;;
71116;SDS011;58775;46.992;9.518;2023-10-31T09:22:42;3.47;;;1.00;;
71116;SDS011;58775;46.992;9.518;2023-10-31T09:24:43;9.23;;;1.40;;
71116;SDS011;58775;46.992;9.518;2023-10-31T09:26:44;3.88;;;1.20;;
71116;SDS011;58775;46.992;9.518;2023-10-31T09:28:45;3.10;;;0.90;;
71116;SDS011;58775;46.992;9.518;2023-10-31T09:30:50;4.55;;;0.80;;
71116;SDS011;58775;46.992;9.518;2023-10-31T09:32:50;2.75;;;0.85;;
71116;SDS011;58775;46.992;9.518;2023-10-31T09:34:52;3.65;;;0.82;;
71116;SDS011;58775;46.992;9.518;2023-10-31T09:36:53;3.20;;;0.90;;
71116;SDS011;58775;46.992;9.518;2023-10-31T09:38:54;2.55;;;0.70;;
71116;SDS011;58775;46.992;9.518;2023-10-31T09:40:54;2.37;;;0.80;;
71116;SDS011;58775;46.992;9.518;2023-10-31T09:42:55;3.72;;;0.95;;
71116;SDS011;58775;46.992;9.518;2023-10-31T09:44:56;3.97;;;0.90;;
71116;SDS011;58775;46.992;9.518;2023-10-31T09:46:57;4.23;;;0.93;;
71116;SDS011;58775;46.992;9.518;2023-10-31T09:48:58;4.93;;;0.90;;
71116;SDS011;58775;46.992;9.518;2023-10-31T09:50:59;2.97;;;0.80;;
71116;SDS011;58775;46.992;9.518;2023-10-31T09:53:02;2.97;;;0.82;;
71116;SDS011;58775;46.992;9.518;2023-10-31T09:55:06;3.03;;;0.80;;
71116;SDS011;58775;46.992;9.518;2023-10-31T09:57:08;3.20;;;1.00;;
71116;SDS011;58775;46.992;9.518;2023-10-31T09:59:09;4.32;;;1.10;;
71116;SDS011;58775;46.992;9.518;2023-10-31T10:01:10;4.07;;;0.98;;
71116;SDS011;58775;46.992;9.518;2023-10-31T10:03:11;3.07;;;0.80;;
71116;SDS011;58775;46.992;9.518;2023-10-31T10:05:13;4.30;;;1.10;;
71116;SDS011;58775;46.992;9.518;2023-10-31T10:07:16;5.32;;;1.00;;
71116;SDS011;58775;46.992;9.518;2023-10-31T10:09:18;2.42;;;0.80;;
71116;SDS011;58775;46.992;9.518;2023-10-31T10:11:19;4.20;;;0.90;;
71116;SDS011;58775;46.992;9.518;2023-10-31T10:13:20;3.45;;;0.90;;
71116;SDS011;58775;46.992;9.518;2023-10-31T10:15:21;3.67;;;0.75;;
71116;SDS011;58775;46.992;9.518;2023-10-31T10:17:23;4.83;;;1.00;;
71116;SDS011;58775;46.992;9.518;2023-10-31T10:19:24;3.25;;;0.80;;
71116;SDS011;58775;46.992;9.518;2023-10-31T10:21:26;6.65;;;1.35;;
71116;SDS011;58775;46.992;9.518;2023-10-31T10:23:27;3.95;;;1.10;;
71116;SDS011;58775;46.992;9.518;2023-10-31T10:25:28;6.00;;;1.20;;
71116;SDS011;58775;46.992;9.518;2023-10-31T10:27:29;4.80;;;0.98;;
71116;SDS011;58775;46.992;9.518;2023-10-31T10:29:30;2.85;;;0.98;;
71116;SDS011;58775;46.992;9.518;2023-10-31T10:31:30;3.88;;;0.90;;
71116;SDS011;58775;46.992;9.518;2023-10-31T10:33:33;2.83;;;0.70;;
71116;SDS011;58775;46.992;9.518;2023-10-31T10:35:34;2.80;;;0.70;;
71116;SDS011;58775;46.992;9.518;2023-10-31T10:37:36;3.92;;;0.60;;
71116;SDS011;58775;46.992;9.518;2023-10-31T10:39:38;4.50;;;0.73;;
71116;SDS011;58775;46.992;9.518;2023-10-31T10:41:40;2.95;;;0.80;;
71116;SDS011;58775;46.992;9.518;2023-10-31T10:43:44;3.60;;;1.00;;
71116;SDS011;58775;46.992;9.518;2023-10-31T10:45:50;2.38;;;0.70;;
71116;SDS011;58775;46.992;9.518;2023-10-31T10:47:56;3.90;;;0.70;;
71116;SDS011;58775;46.992;9.518;2023-10-31T10:50:00;2.22;;;0.68;;
71116;SDS011;58775;46.992;9.518;2023-10-31T10:54:19;3.20;;;0.80;;
71116;SDS011;58775;46.992;9.518;2023-10-31T10:56:28;4.80;;;1.02;;
71116;SDS011;58775;46.992;9.518;2023-10-31T10:58:39;10.73;;;4.10;;
71116;SDS011;58775;46.992;9.518;2023-10-31T11:00:52;7.53;;;1.42;;
71116;SDS011;58775;46.992;9.518;2023-10-31T11:02:55;3.97;;;0.90;;
71116;SDS011;58775;46.992;9.518;2023-10-31T11:04:56;2.50;;;0.70;;
71116;SDS011;58775;46.992;9.518;2023-10-31T11:06:59;3.55;;;0.70;;
71116;SDS011;58775;46.992;9.518;2023-10-31T11:09:00;4.50;;;0.90;;
71116;SDS011;58775;46.992;9.518;2023-10-31T11:11:03;3.78;;;1.00;;
71116;SDS011;58775;46.992;9.518;2023-10-31T11:13:05;6.18;;;2.95;;
71116;SDS011;58775;46.992;9.518;2023-10-31T11:15:08;7.70;;;1.70;;
71116;SDS011;58775;46.992;9.518;2023-10-31T11:17:30;3.15;;;1.00;;
71116;SDS011;58775;46.992;9.518;2023-10-31T11:19:32;3.53;;;0.90;;
71116;SDS011;58775;46.992;9.518;2023-10-31T11:21:34;2.97;;;0.70;;
71116;SDS011;58775;46.992;9.518;2023-10-31T11:23:35;2.37;;;0.80;;
71116;SDS011;58775;46.992;9.518;2023-10-31T11:25:38;4.93;;;1.00;;
71116;SDS011;58775;46.992;9.518;2023-10-31T11:27:44;4.28;;;1.00;;
71116;SDS011;58775;46.992;9.518;2023-10-31T11:29:44;3.77;;;0.93;;
71116;SDS011;58775;46.992;9.518;2023-10-31T11:31:46;3.50;;;0.82;;
71116;SDS011;58775;46.992;9.518;2023-10-31T11:33:47;3.17;;;0.57;;
71116;SDS011;58775;46.992;9.518;2023-10-31T11:35:51;0.93;;;0.40;;
71116;SDS011;58775;46.992;9.518;2023-10-31T11:38:03;1.10;;;0.40;;
71116;SDS011;58775;46.992;9.518;2023-10-31T11:40:19;1.17;;;0.43;;
71116;SDS011;58775;46.992;9.518;2023-10-31T11:42:22;2.58;;;0.73;;
71116;SDS011;58775;46.992;9.518;2023-10-31T11:44:23;2.67;;;0.98;;
71116;SDS011;58775;46.992;9.518;2023-10-31T11:46:26;3.40;;;1.40;;
71116;SDS011;58775;46.992;9.518;2023-10-31T11:48:45;2.45;;;0.90;;
71116;SDS011;58775;46.992;9.518;2023-10-31T11:50:51;2.60;;;0.70;;
71116;SDS011;58775;46.992;9.518;2023-10-31T11:52:59;2.78;;;0.60;;
71116;SDS011;58775;46.992;9.518;2023-10-31T11:55:00;1.75;;;0.47;;
71116;SDS011;58775;46.992;9.518;2023-10-31T11:57:03;1.87;;;0.50;;
71116;SDS011;58775;46.992;9.518;2023-10-31T11:59:04;2.85;;;0.60;;
71116;SDS011;58775;46.992;9.518;2023-10-31T12:01:09;2.05;;;0.57;;
71116;SDS011;58775;46.992;9.518;2023-10-31T12:03:10;1.27;;;0.40;;
71116;SDS011;58775;46.992;9.518;2023-10-31T12:05:11;2.40;;;0.60;;
71116;SDS011;58775;46.992;9.518;2023-10-31T12:07:13;2.08;;;0.60;;
71116;SDS011;58775;46.992;9.518;2023-10-31T12:09:14;3.08;;;0.75;;
71116;SDS011;58775;46.992;9.518;2023-10-31T12:11:16;2.15;;;0.70;;
71116;SDS011;58775;46.992;9.518;2023-10-31T12:13:18;4.15;;;0.65;;
71116;SDS011;58775;46.992;9.518;2023-10-31T12:15:18;0.73;;;0.40;;